Aeroporto :
LOGIN :

Iscrizione | Disclaimer

   EN    FR    IT 

 










Sommario :    VFR   VFR Marginale   IFR   IFR Intensivo   IFR Molto Intensivo
Visibilità : 
Base nubi : 
>= 8 km
>= 3000ft
5 / 8 km
1000 / 3000 ft
1500m / 5 km
500 / 1000 ft
800 / 1500m
200 / 500 ft
< 800m
< 200 ft
Simboli :   Temporali  Nebbia  Neve Forte  Precipitazioni Forti  Vento > 20 kt
SIGMETs :   Varie  Temporali  Ghiacco  Turbolenza  Onda orograficha  Ceneri Vulcaniche






- Altitudine del aeroporto : 481 ft
- Codice IATA : DNK


UKDD - Dnipropetrovs'k

ULTIMO METAR :
  • 301930Z 33009MPS CAVOK 11/00 Q1006 R26/090070 TEMPO 32009G14MPS

METARs OBSOLETI :
  • 301900Z 33009MPS CAVOK 11/00 Q1006 R26/090070 TEMPO 32009G14MPS
  • 301830Z 32010MPS CAVOK 12/00 Q1005 R26/090070 NOSIG
  • 301800Z 32008MPS CAVOK 12/M00 Q1005 R26/090070 BECMG 32007G12MPS
  • 301730Z 32008MPS CAVOK 12/00 Q1005 R26/090070 BECMG 32007G12MPS
  • 301700Z 31007MPS CAVOK 13/M00 Q1004 R26/090070 BECMG 32007G12MPS

TAF TAF UKDD
Valido dal 30 a 18 ore il 31 a 18 ore UTC


301701Z 3018/3118 32008MPS 9999 BKN020 TX12/3018Z TN03/3103Z
TEMPO 3018/3109 32009G14MPS BKN015CB
BECMG 3109/3110 34006MPS



MetMap, La meteo Aeronautica in un colpo d'occhio ! - Copyright ORBIFLY Dicembre 2007 - Disclaimer

ORBIFLY MET'MAP TEAM :

Programmazione e sviluppo : Alexandra Zaïnal
Concezione : Baudouin d'Aumeries
Aiuto per la programmazione : Marc-Olivier Méhu
Supporto tecnico e logistico : Manuel Goepfert
Aiuto per la traduzione : Arnaldo La Scala

Contatto : metmap@orbifly.com




FONTI E CREDITI :

   NOAA